createdAt,value
2023-01-02T00:01:43.102Z,100756.63
2023-01-02T00:06:44.726Z,100752.41
2023-01-02T00:11:46.349Z,100746.47
2023-01-02T00:16:47.988Z,100736.59
2023-01-02T00:21:49.579Z,100755.84
2023-01-02T00:26:51.158Z,100751.03
2023-01-02T00:31:53.011Z,100748.47
2023-01-02T00:36:54.619Z,100732.66
2023-01-02T00:41:56.228Z,100736.81
2023-01-02T00:46:57.839Z,100725.94
2023-01-02T00:51:59.497Z,100716.78
2023-01-02T00:57:01.186Z,100709.13
2023-01-02T01:02:02.971Z,100716.66
2023-01-02T01:07:04.653Z,100708.34
2023-01-02T01:12:06.362Z,100713.25
2023-01-02T01:17:08.036Z,100706.75
2023-01-02T01:22:09.607Z,100701.59
2023-01-02T01:27:11.238Z,100701.47
2023-01-02T01:32:13.954Z,100688.13
2023-01-02T01:37:15.824Z,100689.59
2023-01-02T01:42:18.462Z,100688.19
2023-01-02T01:47:25.764Z,100688.13
2023-01-02T01:52:29.927Z,100669.56
2023-01-02T01:57:42.557Z,100677.28
2023-01-02T02:02:48.320Z,100678.13
2023-01-02T02:08:16.459Z,100675.63
2023-01-02T02:13:19.076Z,100673.13
2023-01-02T02:18:23.402Z,100670.50
2023-01-02T02:23:47.104Z,100668.75
2023-01-02T02:29:17.065Z,100652.59
2023-01-02T02:34:37.190Z,100649.84
2023-01-02T02:40:12.126Z,100635.34
2023-01-02T02:45:24.162Z,100633.63
2023-01-02T02:50:39.867Z,100625.34
2023-01-02T02:55:47.822Z,100616.06
2023-01-02T03:00:49.741Z,100617.69
2023-01-02T03:06:10.645Z,100616.06
2023-01-02T03:11:15.307Z,100612.00
2023-01-02T03:16:24.832Z,100615.31
2023-01-02T03:21:37.041Z,100611.91
2023-01-02T03:26:45.626Z,100619.22
2023-01-02T03:31:53.861Z,100624.56
2023-01-02T03:37:00.252Z,100629.50
2023-01-02T03:42:04.906Z,100615.97
2023-01-02T03:47:23.200Z,100615.16
2023-01-02T03:52:26.269Z,100628.53
2023-01-02T03:57:38.688Z,100623.44
2023-01-02T04:03:09.205Z,100620.97
2023-01-02T04:08:22.776Z,100612.63
2023-01-02T04:13:38.098Z,100609.19
2023-01-02T04:18:46.866Z,100613.25
2023-01-02T04:24:03.494Z,100607.34
2023-01-02T04:29:05.355Z,100624.00
2023-01-02T04:34:11.322Z,100614.03
2023-01-02T04:39:13.270Z,100608.25
2023-01-02T04:44:15.091Z,100613.94
2023-01-02T04:49:16.732Z,100609.22
2023-01-02T04:54:18.333Z,100610.63
2023-01-02T04:59:19.967Z,100614.66
2023-01-02T05:04:21.567Z,100616.81
2023-01-02T05:09:23.195Z,100621.63
2023-01-02T05:14:24.865Z,100612.41
2023-01-02T05:19:26.604Z,100627.59
2023-01-02T05:24:28.346Z,100622.81
2023-01-02T05:29:29.945Z,100631.97
2023-01-02T05:34:31.517Z,100641.00
2023-01-02T05:39:33.123Z,100647.47
2023-01-02T05:44:34.852Z,100643.22
2023-01-02T05:49:36.458Z,100639.69
2023-01-02T05:54:38.116Z,100632.91
2023-01-02T05:59:39.674Z,100620.41
2023-01-02T06:04:41.289Z,100625.53
2023-01-02T06:09:42.885Z,100630.88
2023-01-02T06:14:44.729Z,100637.81
2023-01-02T06:19:53.548Z,100642.06
2023-01-02T06:24:55.636Z,100647.16
2023-01-02T06:29:57.261Z,100639.53
2023-01-02T06:34:58.887Z,100640.09
2023-01-02T06:40:00.490Z,100639.19
2023-01-02T06:45:02.327Z,100640.88
2023-01-02T06:50:04.427Z,100637.47
2023-01-02T06:55:06.451Z,100658.13
2023-01-02T07:00:08.768Z,100651.25
2023-01-02T07:05:10.849Z,100646.31
2023-01-02T07:10:12.497Z,100627.97
2023-01-02T07:15:14.092Z,100628.44
2023-01-02T07:20:16.108Z,100630.91
2023-01-02T07:25:22.067Z,100614.94
2023-01-02T07:30:23.778Z,100621.63
2023-01-02T07:35:25.490Z,100638.44
2023-01-02T07:40:31.930Z,100624.44
2023-01-02T07:45:35.088Z,100639.06
2023-01-02T07:50:36.779Z,100639.31
2023-01-02T07:55:38.365Z,100641.06
2023-01-02T08:00:40.162Z,100636.00
2023-01-02T08:05:41.759Z,100636.97
2023-01-02T08:10:43.936Z,100647.81
2023-01-02T08:15:47.477Z,100643.72
2023-01-02T08:20:49.074Z,100649.53
2023-01-02T08:25:55.672Z,100643.78
2023-01-02T08:31:00.333Z,100644.88
2023-01-02T08:36:02.024Z,100657.50
2023-01-02T08:41:03.973Z,100652.56
2023-01-02T08:46:07.401Z,100650.69
2023-01-02T08:51:10.134Z,100662.81
2023-01-02T08:56:20.100Z,100669.47
2023-01-02T09:01:23.760Z,100678.78
2023-01-02T09:06:28.202Z,100667.97
2023-01-02T09:11:33.238Z,100671.25
2023-01-02T09:16:34.854Z,100662.09
2023-01-02T09:21:36.474Z,100654.78
2023-01-02T09:26:38.179Z,100653.41
2023-01-02T09:31:40.552Z,100653.41
2023-01-02T09:36:42.243Z,100650.38
2023-01-02T09:41:49.498Z,100640.22
2023-01-02T09:47:00.628Z,100641.31
2023-01-02T09:52:02.410Z,100638.31
2023-01-02T09:57:29.129Z,100646.94
2023-01-02T10:02:51.156Z,100623.06
2023-01-02T10:08:31.788Z,100624.78
2023-01-02T10:14:17.502Z,100623.69
2023-01-02T10:19:14.499Z,100610.50
2023-01-02T10:24:39.008Z,100589.53
2023-01-02T10:29:47.319Z,100587.81
2023-01-02T10:35:04.178Z,100584.56
2023-01-02T10:40:08.192Z,100586.56
2023-01-02T10:45:16.187Z,100575.06
2023-01-02T10:50:22.140Z,100562.34
2023-01-02T10:55:37.157Z,100568.25
2023-01-02T11:00:38.842Z,100565.75
2023-01-02T11:05:47.515Z,100558.53
2023-01-02T11:10:50.987Z,100565.81
2023-01-02T11:15:57.815Z,100554.22
2023-01-02T11:21:05.172Z,100543.31
2023-01-02T11:26:23.110Z,100543.84
2023-01-02T11:31:24.970Z,100532.25
2023-01-02T11:36:27.700Z,100535.75
2023-01-02T11:41:49.295Z,100541.47
2023-01-02T11:46:53.042Z,100535.84
2023-01-02T11:52:05.336Z,100542.56
2023-01-02T11:57:18.543Z,100532.34
2023-01-02T12:02:27.250Z,100521.28
2023-01-02T12:07:46.819Z,100520.81
2023-01-02T12:13:00.378Z,100521.25
2023-01-02T12:18:28.056Z,100521.03
2023-01-02T12:23:46.154Z,100519.53
2023-01-02T12:29:48.233Z,100518.53
2023-01-02T12:34:53.537Z,100513.50
2023-01-02T12:40:10.108Z,100514.53
2023-01-02T12:45:35.815Z,100502.72
2023-01-02T12:51:08.054Z,100502.56
2023-01-02T12:56:18.825Z,100492.53
2023-01-02T13:01:29.549Z,100492.50
2023-01-02T13:07:16.230Z,100491.66
2023-01-02T13:12:27.446Z,100503.63
2023-01-02T13:17:44.255Z,100504.63
2023-01-02T13:23:05.273Z,100497.16
2023-01-02T13:28:12.170Z,100504.63
2023-01-02T13:33:22.866Z,100504.63
2023-01-02T13:38:29.152Z,100506.34
2023-01-02T13:43:33.479Z,100505.69
2023-01-02T13:48:44.370Z,100503.97
2023-01-02T13:53:48.489Z,100509.84
2023-01-02T13:58:56.008Z,100513.03
2023-01-02T14:04:09.941Z,100504.63
2023-01-02T14:09:20.709Z,100516.31
2023-01-02T14:14:42.711Z,100515.38
2023-01-02T14:19:45.223Z,100522.84
2023-01-02T14:24:50.357Z,100526.94
2023-01-02T14:30:07.431Z,100519.22
2023-01-02T14:35:34.944Z,100514.03
2023-01-02T14:40:42.371Z,100517.13
2023-01-02T14:45:48.839Z,100519.69
2023-01-02T14:50:51.241Z,100525.63
2023-01-02T14:56:03.127Z,100517.19
2023-01-02T15:01:06.876Z,100521.28
2023-01-02T15:06:20.076Z,100525.97
2023-01-02T15:11:43.318Z,100520.09
2023-01-02T15:16:55.953Z,100516.69
2023-01-02T15:21:57.949Z,100513.28
2023-01-02T15:27:26.393Z,100518.31
2023-01-02T15:32:32.308Z,100518.31
2023-01-02T15:37:34.029Z,100523.09
2023-01-02T15:42:55.763Z,100527.97
2023-01-02T15:47:58.357Z,100549.59
2023-01-02T15:53:09.335Z,100551.25
2023-01-02T15:58:17.424Z,100546.47
2023-01-02T16:04:01.887Z,100555.16
2023-01-02T16:09:01.513Z,100574.31
2023-01-02T16:14:19.103Z,100565.28
2023-01-02T16:19:26.567Z,100569.59
2023-01-02T16:24:28.651Z,100566.38
2023-01-02T16:29:30.352Z,100567.22
2023-01-02T16:34:36.810Z,100577.28
2023-01-02T16:39:46.085Z,100572.22
2023-01-02T16:44:55.291Z,100573.69
2023-01-02T16:49:57.175Z,100577.31
2023-01-02T16:54:58.806Z,100573.19
2023-01-02T17:00:00.394Z,100577.78
2023-01-02T17:05:10.014Z,100588.91
2023-01-02T17:10:12.042Z,100609.88
2023-01-02T17:15:15.510Z,100622.06
2023-01-02T17:20:17.239Z,100629.66
2023-01-02T17:25:19.121Z,100639.38
2023-01-02T17:30:21.291Z,100646.63
2023-01-02T17:35:23.058Z,100641.25
2023-01-02T17:40:24.677Z,100651.75
2023-01-02T17:45:26.676Z,100660.41
2023-01-02T17:50:28.737Z,100672.13
2023-01-02T17:55:30.415Z,100668.69
2023-01-02T18:00:32.028Z,100683.75
2023-01-02T18:05:35.788Z,100695.38
2023-01-02T18:10:38.616Z,100695.63
2023-01-02T18:15:40.199Z,100690.63
2023-01-02T18:20:45.103Z,100687.34
2023-01-02T18:25:46.903Z,100696.72
2023-01-02T18:30:52.832Z,100707.81
2023-01-02T18:36:02.766Z,100707.09
2023-01-02T18:41:31.613Z,100725.69
2023-01-02T18:47:04.611Z,100734.91
2023-01-02T18:52:18.404Z,100742.38
2023-01-02T18:57:23.054Z,100754.31
2023-01-02T19:02:37.187Z,100756.84
2023-01-02T19:07:39.418Z,100765.31
2023-01-02T19:13:07.586Z,100775.50
2023-01-02T19:18:18.516Z,100783.25
2023-01-02T19:23:58.284Z,100772.25
2023-01-02T19:29:08.944Z,100774.94
2023-01-02T19:34:37.283Z,100768.69
2023-01-02T19:39:44.584Z,100780.03
2023-01-02T19:44:46.673Z,100758.38
2023-01-02T19:49:48.769Z,100758.31
2023-01-02T19:54:52.346Z,100744.53
2023-01-02T19:59:59.012Z,100757.59
2023-01-02T20:05:00.688Z,100765.75
2023-01-02T20:10:02.401Z,100770.84
2023-01-02T20:15:11.424Z,100774.16
2023-01-02T20:20:19.820Z,100787.25
2023-01-02T20:25:24.596Z,100786.88
2023-01-02T20:30:26.553Z,100780.28
2023-01-02T20:35:29.010Z,100775.28
2023-01-02T20:40:30.866Z,100769.78
2023-01-02T20:45:32.704Z,100767.97
2023-01-02T20:50:34.489Z,100762.00
2023-01-02T20:55:37.687Z,100770.41
2023-01-02T21:00:39.326Z,100767.72
2023-01-02T21:05:41.398Z,100767.72
2023-01-02T21:10:43.086Z,100772.53
2023-01-02T21:15:49.545Z,100781.25
2023-01-02T21:20:57.717Z,100782.34
2023-01-02T21:25:59.888Z,100784.63
2023-01-02T21:31:02.452Z,100808.38
2023-01-02T21:36:08.342Z,100828.56
2023-01-02T21:41:30.074Z,100829.56
2023-01-02T21:46:31.780Z,100837.19
2023-01-02T21:51:34.331Z,100832.59
2023-01-02T21:56:36.002Z,100826.41
2023-01-02T22:01:37.708Z,100814.47
2023-01-02T22:07:04.382Z,100809.81
2023-01-02T22:12:02.107Z,100820.31
2023-01-02T22:17:07.816Z,100824.97
2023-01-02T22:22:09.465Z,100834.03
2023-01-02T22:27:15.361Z,100839.81
2023-01-02T22:32:17.355Z,100830.16
2023-01-02T22:37:22.600Z,100829.69
2023-01-02T22:43:03.865Z,100824.84
2023-01-02T22:48:15.649Z,100821.41
2023-01-02T22:53:24.520Z,100820.41
2023-01-02T22:58:26.489Z,100823.13
2023-01-02T23:03:37.980Z,100825.94
2023-01-02T23:08:39.768Z,100832.66
2023-01-02T23:13:42.278Z,100832.22
2023-01-02T23:19:03.274Z,100832.50
2023-01-02T23:24:06.211Z,100837.50
2023-01-02T23:29:09.131Z,100841.75
2023-01-02T23:34:12.840Z,100833.66
2023-01-02T23:39:16.939Z,100827.81
2023-01-02T23:44:20.491Z,100838.28
2023-01-02T23:49:23.711Z,100829.59
2023-01-02T23:54:25.439Z,100823.22
2023-01-02T23:59:27.374Z,100834.94
